sensor_id;sensor_type;location;lat;lon;timestamp;pressure;altitude;pressure_sealevel;temperature;humidity
27613;BME280;15036;48.094;-1.690;2022-08-01T00:01:41;101438.06;;;25.86;56.06
27613;BME280;15036;48.094;-1.690;2022-08-01T00:04:06;101438.44;;;25.49;56.79
27613;BME280;15036;48.094;-1.690;2022-08-01T00:06:31;101433.09;;;25.62;56.52
27613;BME280;15036;48.094;-1.690;2022-08-01T00:08:57;101433.84;;;26.08;55.26
27613;BME280;15036;48.094;-1.690;2022-08-01T00:11:22;101436.34;;;26.15;55.20
27613;BME280;15036;48.094;-1.690;2022-08-01T00:13:48;101425.47;;;25.83;55.74
27613;BME280;15036;48.094;-1.690;2022-08-01T00:16:13;101422.38;;;26.05;55.30
27613;BME280;15036;48.094;-1.690;2022-08-01T00:18:39;101436.16;;;25.16;57.67
27613;BME280;15036;48.094;-1.690;2022-08-01T00:21:04;101428.06;;;25.39;57.13
27613;BME280;15036;48.094;-1.690;2022-08-01T00:23:30;101425.16;;;26.00;55.69
27613;BME280;15036;48.094;-1.690;2022-08-01T00:25:56;101426.56;;;25.97;55.59
27613;BME280;15036;48.094;-1.690;2022-08-01T00:28:22;101418.00;;;25.68;55.90
27613;BME280;15036;48.094;-1.690;2022-08-01T00:30:47;101426.34;;;25.73;56.00
27613;BME280;15036;48.094;-1.690;2022-08-01T00:33:13;101420.19;;;25.82;55.99
27613;BME280;15036;48.094;-1.690;2022-08-01T00:35:38;101422.75;;;25.68;56.03
27613;BME280;15036;48.094;-1.690;2022-08-01T00:38:03;101422.97;;;25.82;55.66
27613;BME280;15036;48.094;-1.690;2022-08-01T00:40:29;101413.41;;;25.98;55.37
27613;BME280;15036;48.094;-1.690;2022-08-01T00:42:54;101408.13;;;25.96;55.15
27613;BME280;15036;48.094;-1.690;2022-08-01T00:45:19;101404.22;;;25.92;55.07
27613;BME280;15036;48.094;-1.690;2022-08-01T00:47:45;101406.13;;;26.02;54.85
27613;BME280;15036;48.094;-1.690;2022-08-01T00:50:11;101406.44;;;25.95;55.14
27613;BME280;15036;48.094;-1.690;2022-08-01T00:52:37;101406.22;;;25.71;55.87
27613;BME280;15036;48.094;-1.690;2022-08-01T00:55:05;101402.88;;;25.59;56.33
27613;BME280;15036;48.094;-1.690;2022-08-01T00:57:30;101404.78;;;25.79;55.49
27613;BME280;15036;48.094;-1.690;2022-08-01T00:59:56;101401.22;;;25.68;55.77
27613;BME280;15036;48.094;-1.690;2022-08-01T01:02:21;101394.81;;;25.48;56.33
27613;BME280;15036;48.094;-1.690;2022-08-01T01:04:46;101414.66;;;25.51;56.50
27613;BME280;15036;48.094;-1.690;2022-08-01T01:13:13;101412.59;;;25.87;55.54
27613;BME280;15036;48.094;-1.690;2022-08-01T01:15:48;101411.31;;;25.39;56.60
27613;BME280;15036;48.094;-1.690;2022-08-01T01:18:34;101419.13;;;25.02;57.73
27613;BME280;15036;48.094;-1.690;2022-08-01T01:21:09;101408.22;;;25.56;56.45
27613;BME280;15036;48.094;-1.690;2022-08-01T01:29:51;101397.22;;;25.90;55.13
27613;BME280;15036;48.094;-1.690;2022-08-01T01:32:46;101398.69;;;25.67;55.57
27613;BME280;15036;48.094;-1.690;2022-08-01T01:35:17;101396.50;;;25.09;57.10
27613;BME280;15036;48.094;-1.690;2022-08-01T01:37:45;101397.84;;;25.66;55.54
27613;BME280;15036;48.094;-1.690;2022-08-01T01:40:13;101386.38;;;25.68;55.56
27613;BME280;15036;48.094;-1.690;2022-08-01T01:42:41;101400.09;;;25.34;56.62
27613;BME280;15036;48.094;-1.690;2022-08-01T01:45:08;101402.91;;;25.34;56.56
27613;BME280;15036;48.094;-1.690;2022-08-01T01:47:35;101401.81;;;25.35;56.75
27613;BME280;15036;48.094;-1.690;2022-08-01T01:50:02;101388.66;;;25.31;56.86
27613;BME280;15036;48.094;-1.690;2022-08-01T01:52:29;101385.84;;;25.46;56.25
27613;BME280;15036;48.094;-1.690;2022-08-01T01:54:56;101395.09;;;25.21;56.80
27613;BME280;15036;48.094;-1.690;2022-08-01T01:57:24;101388.94;;;25.09;57.06
27613;BME280;15036;48.094;-1.690;2022-08-01T01:59:50;101392.00;;;25.23;57.02
27613;BME280;15036;48.094;-1.690;2022-08-01T02:02:17;101383.78;;;25.92;55.36
27613;BME280;15036;48.094;-1.690;2022-08-01T02:04:45;101385.50;;;25.77;55.45
27613;BME280;15036;48.094;-1.690;2022-08-01T02:07:13;101388.63;;;25.56;56.07
27613;BME280;15036;48.094;-1.690;2022-08-01T02:09:41;101394.53;;;25.19;56.79
27613;BME280;15036;48.094;-1.690;2022-08-01T02:12:10;101387.25;;;25.43;56.00
27613;BME280;15036;48.094;-1.690;2022-08-01T02:14:37;101402.38;;;25.07;57.28
27613;BME280;15036;48.094;-1.690;2022-08-01T02:17:05;101391.41;;;25.71;55.66
27613;BME280;15036;48.094;-1.690;2022-08-01T02:19:30;101391.69;;;24.69;58.33
27613;BME280;15036;48.094;-1.690;2022-08-01T02:22:00;101389.22;;;24.77;58.18
27613;BME280;15036;48.094;-1.690;2022-08-01T02:27:00;101380.25;;;25.46;55.66
27613;BME280;15036;48.094;-1.690;2022-08-01T02:30:00;101374.78;;;26.00;54.20
27613;BME280;15036;48.094;-1.690;2022-08-01T02:32:40;101381.94;;;25.32;56.22
27613;BME280;15036;48.094;-1.690;2022-08-01T02:35:12;101382.75;;;25.62;55.37
27613;BME280;15036;48.094;-1.690;2022-08-01T02:37:39;101378.59;;;25.55;55.38
27613;BME280;15036;48.094;-1.690;2022-08-01T02:40:08;101387.25;;;25.18;56.23
27613;BME280;15036;48.094;-1.690;2022-08-01T02:42:35;101390.03;;;25.38;55.48
27613;BME280;15036;48.094;-1.690;2022-08-01T02:45:04;101374.09;;;25.69;54.53
27613;BME280;15036;48.094;-1.690;2022-08-01T02:47:31;101388.78;;;26.00;53.46
27613;BME280;15036;48.094;-1.690;2022-08-01T02:49:58;101389.50;;;25.21;54.85
27613;BME280;15036;48.094;-1.690;2022-08-01T02:52:26;101388.38;;;24.87;56.00
27613;BME280;15036;48.094;-1.690;2022-08-01T02:54:55;101381.34;;;24.69;55.93
27613;BME280;15036;48.094;-1.690;2022-08-01T02:57:23;101395.84;;;24.66;56.22
27613;BME280;15036;48.094;-1.690;2022-08-01T02:59:49;101378.34;;;24.91;55.69
27613;BME280;15036;48.094;-1.690;2022-08-01T03:02:16;101382.16;;;24.55;56.46
27613;BME280;15036;48.094;-1.690;2022-08-01T03:04:42;101381.41;;;24.79;55.93
27613;BME280;15036;48.094;-1.690;2022-08-01T03:07:10;101380.00;;;24.97;55.40
27613;BME280;15036;48.094;-1.690;2022-08-01T03:09:39;101380.00;;;25.07;54.88
27613;BME280;15036;48.094;-1.690;2022-08-01T03:12:10;101376.88;;;24.68;55.99
27613;BME280;15036;48.094;-1.690;2022-08-01T03:14:38;101371.34;;;25.04;55.00
27613;BME280;15036;48.094;-1.690;2022-08-01T03:17:05;101369.94;;;24.76;55.56
27613;BME280;15036;48.094;-1.690;2022-08-01T03:19:33;101366.25;;;24.60;56.28
27613;BME280;15036;48.094;-1.690;2022-08-01T03:21:59;101365.22;;;24.91;55.35
27613;BME280;15036;48.094;-1.690;2022-08-01T03:24:29;101366.81;;;25.38;53.95
27613;BME280;15036;48.094;-1.690;2022-08-01T03:26:56;101364.31;;;25.36;54.17
27613;BME280;15036;48.094;-1.690;2022-08-01T03:29:25;101359.03;;;25.35;53.91
27613;BME280;15036;48.094;-1.690;2022-08-01T03:31:51;101378.34;;;25.01;54.69
27613;BME280;15036;48.094;-1.690;2022-08-01T03:34:17;101377.75;;;25.04;54.99
27613;BME280;15036;48.094;-1.690;2022-08-01T03:39:29;101388.66;;;25.21;54.25
27613;BME280;15036;48.094;-1.690;2022-08-01T03:41:59;101383.34;;;24.84;54.81
27613;BME280;15036;48.094;-1.690;2022-08-01T03:44:27;101375.53;;;25.41;53.53
27613;BME280;15036;48.094;-1.690;2022-08-01T03:47:03;101383.09;;;25.41;53.34
27613;BME280;15036;48.094;-1.690;2022-08-01T03:49:35;101382.22;;;25.20;53.60
27613;BME280;15036;48.094;-1.690;2022-08-01T03:52:04;101390.06;;;24.83;54.46
27613;BME280;15036;48.094;-1.690;2022-08-01T03:54:35;101390.50;;;24.45;55.43
27613;BME280;15036;48.094;-1.690;2022-08-01T03:57:01;101384.75;;;24.86;54.08
27613;BME280;15036;48.094;-1.690;2022-08-01T03:59:29;101388.94;;;24.89;54.35
27613;BME280;15036;48.094;-1.690;2022-08-01T04:01:55;101391.47;;;25.11;53.55
27613;BME280;15036;48.094;-1.690;2022-08-01T04:04:21;101388.31;;;24.52;54.72
27613;BME280;15036;48.094;-1.690;2022-08-01T04:06:47;101387.19;;;24.48;54.91
27613;BME280;15036;48.094;-1.690;2022-08-01T04:09:15;101385.53;;;24.67;54.10
27613;BME280;15036;48.094;-1.690;2022-08-01T04:11:41;101391.69;;;24.64;54.46
27613;BME280;15036;48.094;-1.690;2022-08-01T04:14:06;101388.00;;;24.48;54.74
27613;BME280;15036;48.094;-1.690;2022-08-01T04:16:32;101387.88;;;24.08;55.55
27613;BME280;15036;48.094;-1.690;2022-08-01T04:18:57;101387.81;;;24.90;53.86
27613;BME280;15036;48.094;-1.690;2022-08-01T04:21:26;101384.75;;;25.17;52.97
27613;BME280;15036;48.094;-1.690;2022-08-01T04:24:08;101385.59;;;25.02;53.41
27613;BME280;15036;48.094;-1.690;2022-08-01T04:26:36;101387.97;;;24.33;54.74
27613;BME280;15036;48.094;-1.690;2022-08-01T04:29:03;101381.06;;;24.56;54.63
27613;BME280;15036;48.094;-1.690;2022-08-01T04:31:31;101377.34;;;24.25;55.78
27613;BME280;15036;48.094;-1.690;2022-08-01T04:33:57;101388.88;;;24.54;54.80
27613;BME280;15036;48.094;-1.690;2022-08-01T04:36:24;101386.06;;;24.59;54.54
27613;BME280;15036;48.094;-1.690;2022-08-01T04:38:55;101375.78;;;24.74;54.28
27613;BME280;15036;48.094;-1.690;2022-08-01T04:41:23;101366.25;;;24.55;54.39
27613;BME280;15036;48.094;-1.690;2022-08-01T04:43:49;101368.81;;;25.27;52.96
27613;BME280;15036;48.094;-1.690;2022-08-01T04:46:16;101376.91;;;24.78;53.99
27613;BME280;15036;48.094;-1.690;2022-08-01T04:48:43;101387.53;;;24.76;54.42
27613;BME280;15036;48.094;-1.690;2022-08-01T04:51:16;101402.06;;;24.99;53.95
27613;BME280;15036;48.094;-1.690;2022-08-01T04:53:43;101399.22;;;24.68;54.33
27613;BME280;15036;48.094;-1.690;2022-08-01T04:56:11;101408.50;;;24.89;54.18
27613;BME280;15036;48.094;-1.690;2022-08-01T04:58:41;101416.25;;;24.67;54.95
27613;BME280;15036;48.094;-1.690;2022-08-01T05:01:07;101412.28;;;24.38;55.87
27613;BME280;15036;48.094;-1.690;2022-08-01T05:03:32;101413.22;;;24.73;54.75
27613;BME280;15036;48.094;-1.690;2022-08-01T05:05:58;101412.41;;;25.08;53.84
27613;BME280;15036;48.094;-1.690;2022-08-01T05:08:24;101411.47;;;24.42;55.61
27613;BME280;15036;48.094;-1.690;2022-08-01T05:10:49;101415.03;;;24.33;55.61
27613;BME280;15036;48.094;-1.690;2022-08-01T05:13:15;101409.75;;;24.36;55.52
27613;BME280;15036;48.094;-1.690;2022-08-01T05:15:40;101411.78;;;24.56;55.10
27613;BME280;15036;48.094;-1.690;2022-08-01T05:18:06;101412.94;;;24.80;54.35
27613;BME280;15036;48.094;-1.690;2022-08-01T05:20:31;101407.03;;;24.61;55.04
27613;BME280;15036;48.094;-1.690;2022-08-01T05:22:57;101411.28;;;25.04;53.53
27613;BME280;15036;48.094;-1.690;2022-08-01T05:25:22;101425.00;;;25.06;53.10
27613;BME280;15036;48.094;-1.690;2022-08-01T05:27:48;101422.78;;;25.08;52.92
27613;BME280;15036;48.094;-1.690;2022-08-01T05:30:14;101421.63;;;24.83;53.55
27613;BME280;15036;48.094;-1.690;2022-08-01T05:32:39;101428.00;;;24.64;54.04
27613;BME280;15036;48.094;-1.690;2022-08-01T05:35:06;101418.56;;;25.10;52.74
27613;BME280;15036;48.094;-1.690;2022-08-01T05:37:32;101428.63;;;25.21;52.26
27613;BME280;15036;48.094;-1.690;2022-08-01T05:39:57;101433.09;;;25.47;51.81
27613;BME280;15036;48.094;-1.690;2022-08-01T05:42:23;101431.41;;;25.61;51.49
27613;BME280;15036;48.094;-1.690;2022-08-01T05:44:50;101434.25;;;25.46;51.66
27613;BME280;15036;48.094;-1.690;2022-08-01T05:47:16;101433.13;;;25.17;52.23
27613;BME280;15036;48.094;-1.690;2022-08-01T05:49:42;101432.84;;;25.44;51.66
27613;BME280;15036;48.094;-1.690;2022-08-01T05:52:07;101424.16;;;25.35;51.52
27613;BME280;15036;48.094;-1.690;2022-08-01T05:54:32;101422.78;;;25.08;52.52
27613;BME280;15036;48.094;-1.690;2022-08-01T05:56:58;101423.59;;;24.98;52.70
27613;BME280;15036;48.094;-1.690;2022-08-01T05:59:27;101424.91;;;24.65;53.61
27613;BME280;15036;48.094;-1.690;2022-08-01T06:01:52;101434.06;;;24.46;54.16
27613;BME280;15036;48.094;-1.690;2022-08-01T06:04:18;101434.38;;;23.97;55.76
27613;BME280;15036;48.094;-1.690;2022-08-01T06:06:43;101429.84;;;24.33;54.94
27613;BME280;15036;48.094;-1.690;2022-08-01T06:09:09;101431.41;;;24.96;53.09
27613;BME280;15036;48.094;-1.690;2022-08-01T06:11:34;101427.50;;;25.32;52.08
27613;BME280;15036;48.094;-1.690;2022-08-01T06:13:59;101429.75;;;25.25;51.98
27613;BME280;15036;48.094;-1.690;2022-08-01T06:16:25;101446.22;;;25.12;52.04
27613;BME280;15036;48.094;-1.690;2022-08-01T06:18:50;101440.94;;;25.20;51.89
27613;BME280;15036;48.094;-1.690;2022-08-01T06:21:16;101440.06;;;24.79;53.16
27613;BME280;15036;48.094;-1.690;2022-08-01T06:23:41;101446.50;;;25.20;52.12
27613;BME280;15036;48.094;-1.690;2022-08-01T06:26:07;101466.88;;;24.90;53.05
27613;BME280;15036;48.094;-1.690;2022-08-01T06:28:33;101448.75;;;25.28;52.66
27613;BME280;15036;48.094;-1.690;2022-08-01T06:30:58;101439.81;;;25.36;52.42
27613;BME280;15036;48.094;-1.690;2022-08-01T06:33:24;101438.94;;;25.76;51.56
27613;BME280;15036;48.094;-1.690;2022-08-01T06:35:50;101457.44;;;25.67;51.83
27613;BME280;15036;48.094;-1.690;2022-08-01T06:38:15;101449.56;;;24.88;53.79
27613;BME280;15036;48.094;-1.690;2022-08-01T06:40:40;101449.66;;;24.37;55.50
27613;BME280;15036;48.094;-1.690;2022-08-01T06:43:06;101442.00;;;24.79;54.14
27613;BME280;15036;48.094;-1.690;2022-08-01T06:45:31;101451.22;;;24.79;54.19
27613;BME280;15036;48.094;-1.690;2022-08-01T06:47:57;101446.97;;;24.67;54.38
27613;BME280;15036;48.094;-1.690;2022-08-01T06:50:22;101451.53;;;25.08;53.52
27613;BME280;15036;48.094;-1.690;2022-08-01T06:52:47;101448.50;;;25.50;52.29
27613;BME280;15036;48.094;-1.690;2022-08-01T06:55:13;101445.72;;;25.55;51.95
27613;BME280;15036;48.094;-1.690;2022-08-01T06:57:46;101443.16;;;25.13;52.70
27613;BME280;15036;48.094;-1.690;2022-08-01T07:00:12;101438.69;;;25.37;52.34
27613;BME280;15036;48.094;-1.690;2022-08-01T07:02:38;101443.16;;;25.38;52.01
27613;BME280;15036;48.094;-1.690;2022-08-01T07:05:04;101433.06;;;25.77;51.20
27613;BME280;15036;48.094;-1.690;2022-08-01T07:07:30;101428.22;;;26.13;50.08
27613;BME280;15036;48.094;-1.690;2022-08-01T07:09:56;101437.53;;;25.89;50.28
27613;BME280;15036;48.094;-1.690;2022-08-01T07:12:21;101446.97;;;24.62;53.12
27613;BME280;15036;48.094;-1.690;2022-08-01T07:14:47;101458.56;;;25.46;51.27
27613;BME280;15036;48.094;-1.690;2022-08-01T07:17:12;101463.31;;;25.35;51.60
27613;BME280;15036;48.094;-1.690;2022-08-01T07:19:38;101467.22;;;25.34;51.37
27613;BME280;15036;48.094;-1.690;2022-08-01T07:22:03;101461.91;;;25.58;50.93
27613;BME280;15036;48.094;-1.690;2022-08-01T07:24:29;101460.16;;;25.87;49.82
27613;BME280;15036;48.094;-1.690;2022-08-01T07:26:55;101454.31;;;24.98;51.75
27613;BME280;15036;48.094;-1.690;2022-08-01T07:29:23;101464.16;;;25.56;50.03
27613;BME280;15036;48.094;-1.690;2022-08-01T07:31:50;101456.53;;;25.92;49.28
27613;BME280;15036;48.094;-1.690;2022-08-01T07:34:15;101453.59;;;26.42;48.21
27613;BME280;15036;48.094;-1.690;2022-08-01T07:36:41;101454.97;;;26.44;48.22
27613;BME280;15036;48.094;-1.690;2022-08-01T07:39:06;101455.69;;;26.70;47.62
27613;BME280;15036;48.094;-1.690;2022-08-01T07:41:31;101459.03;;;26.77;47.24
27613;BME280;15036;48.094;-1.690;2022-08-01T07:43:57;101457.25;;;26.91;47.30
27613;BME280;15036;48.094;-1.690;2022-08-01T07:46:22;101457.28;;;26.86;46.80
27613;BME280;15036;48.094;-1.690;2022-08-01T07:48:47;101450.81;;;26.91;47.11
27613;BME280;15036;48.094;-1.690;2022-08-01T07:51:13;101445.28;;;26.22;48.65
27613;BME280;15036;48.094;-1.690;2022-08-01T07:53:38;101442.41;;;26.37;48.33
27613;BME280;15036;48.094;-1.690;2022-08-01T07:56:04;101444.22;;;26.72;47.55
27613;BME280;15036;48.094;-1.690;2022-08-01T07:58:33;101454.16;;;26.98;47.17
27613;BME280;15036;48.094;-1.690;2022-08-01T08:00:58;101460.91;;;26.92;46.72
27613;BME280;15036;48.094;-1.690;2022-08-01T08:03:24;101450.34;;;26.69;47.63
27613;BME280;15036;48.094;-1.690;2022-08-01T08:05:49;101467.94;;;26.89;47.16
27613;BME280;15036;48.094;-1.690;2022-08-01T08:08:15;101475.66;;;27.02;46.54
27613;BME280;15036;48.094;-1.690;2022-08-01T08:10:42;101468.06;;;27.08;46.62
27613;BME280;15036;48.094;-1.690;2022-08-01T08:13:07;101466.28;;;27.22;46.62
27613;BME280;15036;48.094;-1.690;2022-08-01T08:15:32;101463.88;;;26.56;47.78
27613;BME280;15036;48.094;-1.690;2022-08-01T08:17:58;101464.28;;;26.30;48.59
27613;BME280;15036;48.094;-1.690;2022-08-01T08:20:23;101463.47;;;26.83;47.27
27613;BME280;15036;48.094;-1.690;2022-08-01T08:22:52;101469.97;;;25.95;48.97
27613;BME280;15036;48.094;-1.690;2022-08-01T08:25:18;101475.78;;;26.28;48.72
27613;BME280;15036;48.094;-1.690;2022-08-01T08:27:47;101469.59;;;26.90;47.18
27613;BME280;15036;48.094;-1.690;2022-08-01T08:30:13;101470.06;;;27.02;46.46
27613;BME280;15036;48.094;-1.690;2022-08-01T08:32:39;101468.25;;;27.21;46.24
27613;BME280;15036;48.094;-1.690;2022-08-01T08:35:05;101462.84;;;27.64;45.43
27613;BME280;15036;48.094;-1.690;2022-08-01T08:37:31;101477.31;;;27.76;44.80
27613;BME280;15036;48.094;-1.690;2022-08-01T08:39:57;101474.88;;;27.98;44.38
27613;BME280;15036;48.094;-1.690;2022-08-01T08:42:22;101466.53;;;28.16;44.04
27613;BME280;15036;48.094;-1.690;2022-08-01T08:44:48;101467.34;;;28.17;43.72
27613;BME280;15036;48.094;-1.690;2022-08-01T08:47:14;101467.72;;;27.82;44.32
27613;BME280;15036;48.094;-1.690;2022-08-01T08:49:42;101475.03;;;27.15;45.62
27613;BME280;15036;48.094;-1.690;2022-08-01T08:52:08;101469.59;;;28.20;43.47
27613;BME280;15036;48.094;-1.690;2022-08-01T08:54:35;101468.19;;;28.41;43.05
27613;BME280;15036;48.094;-1.690;2022-08-01T08:57:02;101472.22;;;27.83;44.11
27613;BME280;15036;48.094;-1.690;2022-08-01T08:59:28;101470.41;;;27.34;45.12
27613;BME280;15036;48.094;-1.690;2022-08-01T09:01:54;101467.94;;;27.90;43.86
27613;BME280;15036;48.094;-1.690;2022-08-01T09:04:21;101466.25;;;27.27;44.86
27613;BME280;15036;48.094;-1.690;2022-08-01T09:06:50;101467.91;;;28.19;43.34
27613;BME280;15036;48.094;-1.690;2022-08-01T09:09:16;101467.44;;;28.96;42.28
27613;BME280;15036;48.094;-1.690;2022-08-01T09:11:41;101474.47;;;29.18;41.52
27613;BME280;15036;48.094;-1.690;2022-08-01T09:14:15;101471.25;;;29.24;40.93
27613;BME280;15036;48.094;-1.690;2022-08-01T09:16:47;101470.47;;;28.39;43.13
27613;BME280;15036;48.094;-1.690;2022-08-01T09:19:23;101463.56;;;28.74;42.02
27613;BME280;15036;48.094;-1.690;2022-08-01T09:22:00;101469.34;;;28.82;41.73
27613;BME280;15036;48.094;-1.690;2022-08-01T09:24:27;101476.38;;;28.38;42.41
27613;BME280;15036;48.094;-1.690;2022-08-01T09:26:54;101467.69;;;28.81;41.47
27613;BME280;15036;48.094;-1.690;2022-08-01T09:29:28;101484.38;;;28.73;42.14
27613;BME280;15036;48.094;-1.690;2022-08-01T09:31:55;101478.72;;;28.54;41.74
27613;BME280;15036;48.094;-1.690;2022-08-01T09:34:29;101468.31;;;28.55;42.04
27613;BME280;15036;48.094;-1.690;2022-08-01T09:36:59;101476.13;;;29.37;40.55
27613;BME280;15036;48.094;-1.690;2022-08-01T09:39:28;101484.84;;;29.68;40.45
27613;BME280;15036;48.094;-1.690;2022-08-01T09:41:55;101473.97;;;29.93;39.66
27613;BME280;15036;48.094;-1.690;2022-08-01T09:44:40;101480.56;;;29.57;40.03
27613;BME280;15036;48.094;-1.690;2022-08-01T09:47:06;101472.81;;;29.49;40.32
27613;BME280;15036;48.094;-1.690;2022-08-01T09:49:34;101468.03;;;29.49;40.17
27613;BME280;15036;48.094;-1.690;2022-08-01T09:52:21;101470.03;;;29.94;39.36
27613;BME280;15036;48.094;-1.690;2022-08-01T09:55:04;101480.22;;;29.77;39.39
27613;BME280;15036;48.094;-1.690;2022-08-01T09:57:30;101478.38;;;30.00;38.73
27613;BME280;15036;48.094;-1.690;2022-08-01T09:59:58;101464.63;;;30.25;38.64
27613;BME280;15036;48.094;-1.690;2022-08-01T10:02:34;101469.88;;;30.45;38.01
27613;BME280;15036;48.094;-1.690;2022-08-01T10:05:02;101485.97;;;29.53;39.80
27613;BME280;15036;48.094;-1.690;2022-08-01T10:07:28;101486.53;;;30.15;38.53
27613;BME280;15036;48.094;-1.690;2022-08-01T10:09:53;101471.09;;;30.53;38.62
27613;BME280;15036;48.094;-1.690;2022-08-01T10:12:21;101466.53;;;30.43;38.11
27613;BME280;15036;48.094;-1.690;2022-08-01T10:14:48;101478.16;;;29.96;38.77
27613;BME280;15036;48.094;-1.690;2022-08-01T10:17:16;101467.63;;;30.69;38.00
27613;BME280;15036;48.094;-1.690;2022-08-01T10:19:43;101461.19;;;31.05;36.86
27613;BME280;15036;48.094;-1.690;2022-08-01T10:22:10;101470.19;;;31.07;37.12
27613;BME280;15036;48.094;-1.690;2022-08-01T10:24:40;101476.75;;;31.38;36.50
27613;BME280;15036;48.094;-1.690;2022-08-01T10:27:09;101470.69;;;31.09;36.88
27613;BME280;15036;48.094;-1.690;2022-08-01T10:29:41;101466.81;;;30.69;37.35
27613;BME280;15036;48.094;-1.690;2022-08-01T10:32:07;101471.69;;;30.77;37.16
27613;BME280;15036;48.094;-1.690;2022-08-01T10:34:35;101467.34;;;30.57;37.18
27613;BME280;15036;48.094;-1.690;2022-08-01T10:37:02;101472.78;;;30.54;37.86
27613;BME280;15036;48.094;-1.690;2022-08-01T10:39:28;101469.22;;;31.11;36.42
27613;BME280;15036;48.094;-1.690;2022-08-01T10:41:55;101473.28;;;31.19;36.18
27613;BME280;15036;48.094;-1.690;2022-08-01T10:44:23;101475.56;;;31.17;36.46
27613;BME280;15036;48.094;-1.690;2022-08-01T10:46:55;101473.22;;;31.32;36.28
27613;BME280;15036;48.094;-1.690;2022-08-01T10:49:22;101476.09;;;31.19;36.32
27613;BME280;15036;48.094;-1.690;2022-08-01T10:51:49;101484.09;;;29.30;39.92
27613;BME280;15036;48.094;-1.690;2022-08-01T10:54:15;101472.75;;;30.27;38.33
27613;BME280;15036;48.094;-1.690;2022-08-01T10:59:08;101454.75;;;30.91;37.09
27613;BME280;15036;48.094;-1.690;2022-08-01T11:01:34;101449.03;;;30.96;36.92
27613;BME280;15036;48.094;-1.690;2022-08-01T11:04:11;101459.00;;;31.37;36.25
27613;BME280;15036;48.094;-1.690;2022-08-01T11:12:00;101449.25;;;31.96;35.06
27613;BME280;15036;48.094;-1.690;2022-08-01T11:14:27;101452.41;;;31.95;34.93
27613;BME280;15036;48.094;-1.690;2022-08-01T11:16:54;101455.22;;;32.34;34.31
27613;BME280;15036;48.094;-1.690;2022-08-01T11:19:20;101447.00;;;32.63;34.12
27613;BME280;15036;48.094;-1.690;2022-08-01T11:30:22;101436.50;;;32.55;33.59
27613;BME280;15036;48.094;-1.690;2022-08-01T11:32:56;101439.88;;;32.74;33.45
27613;BME280;15036;48.094;-1.690;2022-08-01T11:35:24;101439.66;;;32.06;34.88
27613;BME280;15036;48.094;-1.690;2022-08-01T11:37:54;101431.63;;;31.99;34.69
27613;BME280;15036;48.094;-1.690;2022-08-01T11:40:24;101429.63;;;32.39;34.00
27613;BME280;15036;48.094;-1.690;2022-08-01T11:45:51;101426.03;;;32.56;33.67
27613;BME280;15036;48.094;-1.690;2022-08-01T11:48:19;101435.34;;;32.08;35.03
27613;BME280;15036;48.094;-1.690;2022-08-01T11:50:45;101424.56;;;32.58;34.03
27613;BME280;15036;48.094;-1.690;2022-08-01T11:53:10;101425.78;;;33.25;32.52
27613;BME280;15036;48.094;-1.690;2022-08-01T11:55:53;101423.28;;;33.07;33.15
27613;BME280;15036;48.094;-1.690;2022-08-01T11:58:23;101411.09;;;32.81;33.75
27613;BME280;15036;48.094;-1.690;2022-08-01T12:00:53;101423.38;;;33.62;32.24
27613;BME280;15036;48.094;-1.690;2022-08-01T12:03:25;101420.56;;;32.68;33.44
27613;BME280;15036;48.094;-1.690;2022-08-01T12:05:53;101424.81;;;31.70;35.46
27613;BME280;15036;48.094;-1.690;2022-08-01T12:08:29;101421.25;;;31.55;35.58
27613;BME280;15036;48.094;-1.690;2022-08-01T12:10:55;101425.91;;;31.51;35.95
27613;BME280;15036;48.094;-1.690;2022-08-01T12:13:21;101424.53;;;31.71;35.41
27613;BME280;15036;48.094;-1.690;2022-08-01T12:15:48;101413.97;;;32.24;34.42
27613;BME280;15036;48.094;-1.690;2022-08-01T12:18:15;101422.09;;;33.25;33.19
27613;BME280;15036;48.094;-1.690;2022-08-01T12:20:43;101417.34;;;32.43;34.48
27613;BME280;15036;48.094;-1.690;2022-08-01T12:23:11;101413.97;;;32.24;34.72
27613;BME280;15036;48.094;-1.690;2022-08-01T12:25:38;101412.47;;;31.57;35.64
27613;BME280;15036;48.094;-1.690;2022-08-01T12:28:09;101424.19;;;31.06;36.66
27613;BME280;15036;48.094;-1.690;2022-08-01T12:30:36;101419.16;;;32.39;35.01
27613;BME280;15036;48.094;-1.690;2022-08-01T12:33:09;101416.94;;;33.27;33.37
27613;BME280;15036;48.094;-1.690;2022-08-01T12:35:37;101417.72;;;32.03;35.15
27613;BME280;15036;48.094;-1.690;2022-08-01T12:38:17;101419.38;;;32.69;34.24
27613;BME280;15036;48.094;-1.690;2022-08-01T12:40:46;101423.03;;;32.04;35.55
27613;BME280;15036;48.094;-1.690;2022-08-01T12:43:17;101412.06;;;32.11;35.42
27613;BME280;15036;48.094;-1.690;2022-08-01T12:45:45;101428.69;;;32.04;35.10
27613;BME280;15036;48.094;-1.690;2022-08-01T12:48:13;101419.03;;;31.97;35.50
27613;BME280;15036;48.094;-1.690;2022-08-01T12:50:41;101417.91;;;32.06;35.25
27613;BME280;15036;48.094;-1.690;2022-08-01T12:53:08;101427.03;;;31.50;36.13
27613;BME280;15036;48.094;-1.690;2022-08-01T12:55:44;101419.25;;;31.34;36.43
27613;BME280;15036;48.094;-1.690;2022-08-01T12:58:13;101410.69;;;31.70;35.93
27613;BME280;15036;48.094;-1.690;2022-08-01T13:00:40;101418.41;;;32.73;34.04
27613;BME280;15036;48.094;-1.690;2022-08-01T13:03:15;101417.72;;;32.59;34.57
27613;BME280;15036;48.094;-1.690;2022-08-01T13:08:10;101420.25;;;32.95;33.67
27613;BME280;15036;48.094;-1.690;2022-08-01T13:10:35;101413.63;;;32.99;33.30
27613;BME280;15036;48.094;-1.690;2022-08-01T13:13:01;101417.25;;;33.34;32.79
27613;BME280;15036;48.094;-1.690;2022-08-01T13:15:30;101414.41;;;33.97;31.99
27613;BME280;15036;48.094;-1.690;2022-08-01T13:17:57;101413.25;;;33.35;33.10
27613;BME280;15036;48.094;-1.690;2022-08-01T13:20:29;101400.88;;;34.12;32.13
27613;BME280;15036;48.094;-1.690;2022-08-01T13:23:19;101405.91;;;33.97;32.39